createdAt,value
2023-06-09T00:01:11.114Z,14.72
2023-06-09T00:05:26.856Z,14.74
2023-06-09T00:09:30.975Z,14.68
2023-06-09T00:13:32.998Z,14.60
2023-06-09T00:17:35.718Z,14.53
2023-06-09T00:21:38.540Z,14.50
2023-06-09T00:25:40.697Z,14.41
2023-06-09T00:29:42.803Z,14.36
2023-06-09T00:33:44.970Z,14.34
2023-06-09T00:37:49.186Z,14.30
2023-06-09T00:41:51.386Z,14.28
2023-06-09T00:45:54.290Z,14.17
2023-06-09T00:49:56.392Z,14.13
2023-06-09T00:53:58.570Z,14.07
2023-06-09T00:58:02.371Z,13.93
2023-06-09T01:02:05.711Z,13.94
2023-06-09T01:06:39.891Z,13.91
2023-06-09T01:11:01.773Z,13.79
2023-06-09T01:15:13.243Z,13.74
2023-06-09T01:19:27.126Z,13.64
2023-06-09T01:23:32.014Z,13.56
2023-06-09T01:27:37.614Z,13.52
2023-06-09T01:31:40.088Z,13.48
2023-06-09T01:35:42.803Z,13.36
2023-06-09T01:39:47.231Z,13.35
2023-06-09T01:43:49.496Z,13.27
2023-06-09T01:47:52.370Z,13.20
2023-06-09T01:52:19.944Z,13.18
2023-06-09T01:56:29.056Z,13.17
2023-06-09T02:00:31.624Z,13.17
2023-06-09T02:04:35.686Z,13.12
2023-06-09T02:08:38.655Z,13.14
2023-06-09T02:12:40.962Z,13.10
2023-06-09T02:16:43.198Z,13.07
2023-06-09T02:20:45.414Z,12.99
2023-06-09T02:24:48.594Z,12.93
2023-06-09T02:28:50.664Z,13.00
2023-06-09T02:32:53.423Z,13.03
2023-06-09T02:36:55.646Z,13.02
2023-06-09T02:40:57.749Z,13.05
2023-06-09T02:45:00.015Z,13.03
2023-06-09T02:49:02.671Z,13.01
2023-06-09T02:53:04.435Z,13.02
2023-06-09T02:57:08.336Z,13.08
2023-06-09T03:01:12.726Z,13.04
2023-06-09T03:05:15.458Z,13.18
2023-06-09T03:09:20.267Z,13.23
2023-06-09T03:13:26.406Z,13.36
2023-06-09T03:17:30.640Z,13.39
2023-06-09T03:21:36.468Z,13.56
2023-06-09T03:25:40.345Z,13.71
2023-06-09T03:29:44.145Z,13.84
2023-06-09T03:33:46.675Z,14.03
2023-06-09T03:37:49.332Z,14.17
2023-06-09T03:41:55.336Z,14.29
2023-06-09T03:45:59.168Z,14.50
2023-06-09T03:50:01.530Z,14.69
2023-06-09T03:54:05.499Z,14.87
2023-06-09T03:58:10.020Z,15.07
2023-06-09T04:02:12.412Z,15.31
2023-06-09T04:06:14.696Z,15.42
2023-06-09T04:10:16.915Z,15.58
2023-06-09T04:14:19.758Z,15.79
2023-06-09T04:18:24.382Z,15.96
2023-06-09T04:22:27.158Z,16.17
2023-06-09T04:26:30.888Z,16.37
2023-06-09T04:30:35.639Z,16.57
2023-06-09T04:34:41.804Z,16.68
2023-06-09T04:38:48.079Z,16.91
2023-06-09T04:42:51.863Z,17.10
2023-06-09T04:46:54.999Z,17.32
2023-06-09T04:51:01.830Z,17.55
2023-06-09T04:55:08.936Z,17.80
2023-06-09T04:59:12.786Z,17.98
2023-06-09T05:03:18.913Z,18.15
2023-06-09T05:07:23.582Z,18.38
2023-06-09T05:11:25.757Z,18.60
2023-06-09T05:15:28.575Z,18.82
2023-06-09T05:19:30.959Z,19.04
2023-06-09T05:23:34.302Z,19.31
2023-06-09T05:27:37.593Z,19.49
2023-06-09T05:31:41.578Z,19.76
2023-06-09T05:35:43.685Z,19.96
2023-06-09T05:39:47.204Z,20.13
2023-06-09T05:43:49.275Z,20.40
2023-06-09T05:47:51.773Z,20.62
2023-06-09T05:51:54.324Z,20.83
2023-06-09T05:55:59.950Z,21.03
2023-06-09T06:00:09.775Z,21.19
2023-06-09T06:04:15.174Z,21.40
2023-06-09T06:08:17.256Z,21.72
2023-06-09T06:12:19.296Z,21.86
2023-06-09T06:16:22.152Z,22.17
2023-06-09T06:20:25.085Z,22.43
2023-06-09T06:24:27.204Z,22.62
2023-06-09T06:28:29.370Z,22.79
2023-06-09T06:32:31.621Z,22.83
2023-06-09T06:36:33.767Z,23.03
2023-06-09T06:40:36.012Z,23.35
2023-06-09T06:44:38.022Z,23.50
2023-06-09T06:48:42.494Z,23.64
2023-06-09T06:52:44.610Z,23.87
2023-06-09T06:56:46.657Z,24.12
2023-06-09T07:00:48.321Z,24.18
2023-06-09T07:04:52.032Z,24.25
2023-06-09T07:08:55.304Z,24.43
2023-06-09T07:12:57.391Z,24.63
2023-06-09T07:16:59.644Z,24.68
2023-06-09T07:21:04.767Z,25.01
2023-06-09T07:25:07.881Z,25.16
2023-06-09T07:29:10.289Z,25.48
2023-06-09T07:33:12.359Z,25.55
2023-06-09T07:37:14.655Z,25.29
2023-06-09T07:41:16.840Z,25.16
2023-06-09T07:45:19.463Z,25.69
2023-06-09T07:49:21.844Z,25.75
2023-06-09T07:53:24.593Z,25.84
2023-06-09T07:57:26.638Z,26.00
2023-06-09T08:01:30.434Z,26.30
2023-06-09T08:05:35.112Z,26.36
2023-06-09T08:09:38.990Z,26.32
2023-06-09T08:13:41.063Z,26.73
2023-06-09T08:17:43.231Z,26.75
2023-06-09T08:21:45.381Z,26.71
2023-06-09T08:25:48.258Z,26.95
2023-06-09T08:29:50.486Z,27.23
2023-06-09T08:33:53.165Z,27.44
2023-06-09T08:37:55.185Z,27.38
2023-06-09T08:42:00.375Z,27.47
2023-06-09T08:46:06.128Z,27.60
2023-06-09T08:50:09.298Z,27.28
2023-06-09T08:54:14.698Z,27.13
2023-06-09T08:58:16.916Z,27.26
2023-06-09T09:02:19.479Z,27.67
2023-06-09T09:06:21.642Z,27.96
2023-06-09T09:10:24.164Z,27.73
2023-06-09T09:14:26.411Z,27.90
2023-06-09T09:18:32.946Z,28.19
2023-06-09T09:22:51.934Z,27.97
2023-06-09T09:26:59.265Z,28.13
2023-06-09T09:31:01.956Z,28.30
2023-06-09T09:35:04.883Z,27.58
2023-06-09T09:39:07.156Z,27.03
2023-06-09T09:43:11.266Z,26.78
2023-06-09T09:47:16.192Z,26.76
2023-06-09T09:51:21.941Z,26.62
2023-06-09T09:55:25.387Z,26.88
2023-06-09T09:59:27.881Z,26.74
2023-06-09T10:03:31.313Z,26.82
2023-06-09T10:07:39.295Z,27.21
2023-06-09T10:11:42.273Z,27.29
2023-06-09T10:15:45.432Z,27.61
2023-06-09T10:19:52.911Z,28.04
2023-06-09T10:23:57.341Z,28.64
2023-06-09T10:27:59.425Z,28.09
2023-06-09T10:32:03.200Z,28.40
2023-06-09T10:36:06.749Z,28.11
2023-06-09T10:40:23.664Z,28.69
2023-06-09T10:44:35.597Z,28.41
2023-06-09T10:48:45.565Z,27.64
2023-06-09T10:52:50.889Z,27.73
2023-06-09T10:56:55.683Z,28.32
2023-06-09T11:01:08.741Z,28.46
2023-06-09T11:05:12.858Z,28.98
2023-06-09T11:09:15.732Z,29.33
2023-06-09T11:13:40.543Z,28.94
2023-06-09T11:17:44.533Z,28.88
2023-06-09T11:22:03.901Z,28.73
2023-06-09T11:26:20.217Z,27.89
2023-06-09T11:30:31.262Z,28.13
2023-06-09T11:34:50.286Z,28.97
2023-06-09T11:38:53.056Z,29.45
2023-06-09T11:42:59.701Z,29.81
2023-06-09T11:47:03.269Z,29.98
2023-06-09T11:51:08.327Z,30.51
2023-06-09T11:55:15.932Z,30.86
2023-06-09T11:59:27.518Z,30.22
2023-06-09T12:03:37.490Z,29.58
2023-06-09T12:07:42.429Z,29.53
2023-06-09T12:11:52.110Z,30.10
2023-06-09T12:15:54.248Z,29.59
2023-06-09T12:19:57.552Z,28.80
2023-06-09T12:23:59.890Z,28.08
2023-06-09T12:28:24.257Z,27.42
2023-06-09T12:32:27.176Z,27.55
2023-06-09T12:36:39.734Z,27.38
2023-06-09T12:40:53.827Z,27.93
2023-06-09T12:44:59.022Z,27.54
2023-06-09T12:49:08.985Z,27.29
2023-06-09T12:53:12.797Z,26.74
2023-06-09T12:57:14.893Z,26.09
2023-06-09T13:01:17.536Z,25.85
2023-06-09T13:05:19.831Z,25.91
2023-06-09T13:09:22.173Z,25.75
2023-06-09T13:13:24.303Z,25.80
2023-06-09T13:17:26.301Z,26.38
2023-06-09T13:21:43.973Z,26.44
2023-06-09T13:25:47.447Z,26.18
2023-06-09T13:29:49.555Z,26.09
2023-06-09T13:33:51.917Z,26.40
2023-06-09T13:37:54.034Z,26.87
2023-06-09T13:41:56.203Z,27.44
2023-06-09T13:45:58.268Z,27.98
2023-06-09T13:50:00.476Z,28.05
2023-06-09T13:54:02.603Z,28.10
2023-06-09T13:58:04.801Z,28.57
2023-06-09T14:02:07.625Z,28.93
2023-06-09T14:06:09.743Z,28.02
2023-06-09T14:10:14.552Z,28.14
2023-06-09T14:14:17.804Z,28.19
2023-06-09T14:18:19.948Z,27.61
2023-06-09T14:22:23.768Z,27.34
2023-06-09T14:26:26.130Z,26.67
2023-06-09T14:30:29.135Z,26.20
2023-06-09T14:34:31.910Z,26.13
2023-06-09T14:38:34.266Z,26.06
2023-06-09T14:42:36.637Z,26.09
2023-06-09T14:46:38.802Z,26.45
2023-06-09T14:50:47.799Z,26.75
2023-06-09T14:54:51.375Z,26.74
2023-06-09T14:58:53.438Z,26.78
2023-06-09T15:03:00.112Z,27.37
2023-06-09T15:07:02.446Z,27.64
2023-06-09T15:11:05.238Z,27.67
2023-06-09T15:15:08.164Z,27.92
2023-06-09T15:19:10.320Z,29.04
2023-06-09T15:23:13.381Z,28.43
2023-06-09T15:27:15.701Z,27.37
2023-06-09T15:31:17.701Z,26.52
2023-06-09T15:35:19.785Z,26.22
2023-06-09T15:39:21.715Z,25.87
2023-06-09T15:43:25.241Z,25.95
2023-06-09T15:47:30.181Z,25.79
2023-06-09T15:51:32.364Z,25.68
2023-06-09T15:55:34.997Z,25.55
2023-06-09T15:59:36.805Z,25.53
2023-06-09T16:03:38.994Z,25.51
2023-06-09T16:07:41.093Z,25.51
2023-06-09T16:11:43.223Z,25.44
2023-06-09T16:15:45.405Z,25.36
2023-06-09T16:19:47.465Z,25.44
2023-06-09T16:23:50.352Z,25.29
2023-06-09T16:27:52.766Z,25.25
2023-06-09T16:31:56.195Z,25.15
2023-06-09T16:35:58.307Z,25.11
2023-06-09T16:40:00.754Z,24.91
2023-06-09T16:44:02.764Z,24.77
2023-06-09T16:48:05.108Z,24.81
2023-06-09T16:52:07.687Z,24.69
2023-06-09T16:56:09.880Z,24.53
2023-06-09T17:00:12.641Z,24.52
2023-06-09T17:04:15.067Z,24.43
2023-06-09T17:08:17.254Z,24.32
2023-06-09T17:12:19.286Z,24.23
2023-06-09T17:16:21.788Z,24.14
2023-06-09T17:20:24.107Z,24.07
2023-06-09T17:24:26.216Z,24.04
2023-06-09T17:28:28.323Z,23.92
2023-06-09T17:32:30.791Z,23.93
2023-06-09T17:36:33.114Z,23.80
2023-06-09T17:40:35.335Z,23.75
2023-06-09T17:44:37.625Z,23.62
2023-06-09T17:48:41.794Z,23.56
2023-06-09T17:52:43.856Z,23.42
2023-06-09T17:56:46.006Z,23.33
2023-06-09T18:00:50.555Z,23.22
2023-06-09T18:04:53.291Z,23.06
2023-06-09T18:08:55.393Z,22.92
2023-06-09T18:12:57.564Z,22.76
2023-06-09T18:16:59.642Z,22.66
2023-06-09T18:21:01.708Z,22.52
2023-06-09T18:25:04.185Z,22.40
2023-06-09T18:29:06.838Z,22.26
2023-06-09T18:33:08.954Z,22.05
2023-06-09T18:37:11.372Z,21.86
2023-06-09T18:41:13.589Z,21.72
2023-06-09T18:45:15.812Z,21.58
2023-06-09T18:49:18.111Z,21.43
2023-06-09T18:53:20.174Z,21.33
2023-06-09T18:57:22.237Z,21.04
2023-06-09T19:01:24.827Z,21.05
2023-06-09T19:05:27.053Z,20.93
2023-06-09T19:09:29.147Z,20.87
2023-06-09T19:13:31.548Z,20.75
2023-06-09T19:17:34.574Z,20.65
2023-06-09T19:21:36.970Z,20.52
2023-06-09T19:25:39.300Z,20.44
2023-06-09T19:29:41.536Z,20.33
2023-06-09T19:33:44.196Z,20.17
2023-06-09T19:37:46.338Z,20.08
2023-06-09T19:41:48.444Z,19.94
2023-06-09T19:45:50.577Z,19.81
2023-06-09T19:49:52.966Z,19.79
2023-06-09T19:53:57.541Z,19.76
2023-06-09T19:57:59.328Z,19.71
2023-06-09T20:02:01.687Z,19.68
2023-06-09T20:06:03.887Z,19.65
2023-06-09T20:10:07.548Z,19.63
2023-06-09T20:14:10.287Z,19.71
2023-06-09T20:18:12.255Z,19.70
2023-06-09T20:22:15.012Z,19.71
2023-06-09T20:26:19.141Z,19.66
2023-06-09T20:30:23.392Z,19.71
2023-06-09T20:34:26.032Z,19.67
2023-06-09T20:38:28.634Z,19.65
2023-06-09T20:42:31.304Z,19.62
2023-06-09T20:46:34.163Z,19.69
2023-06-09T20:50:37.020Z,19.67
2023-06-09T20:54:39.482Z,19.73
2023-06-09T20:58:42.479Z,19.74
2023-06-09T21:02:48.326Z,19.73
2023-06-09T21:06:50.610Z,19.77
2023-06-09T21:10:52.408Z,19.79
2023-06-09T21:14:54.458Z,19.81
2023-06-09T21:18:57.825Z,19.80
2023-06-09T21:23:00.737Z,19.89
2023-06-09T21:27:02.974Z,19.93
2023-06-09T21:31:05.118Z,20.01
2023-06-09T21:35:07.937Z,20.03
2023-06-09T21:39:10.319Z,20.05
2023-06-09T21:43:12.099Z,20.20
2023-06-09T21:47:14.427Z,20.35
2023-06-09T21:51:17.164Z,20.36
2023-06-09T21:55:20.639Z,20.35
2023-06-09T21:59:22.853Z,20.27
2023-06-09T22:03:25.052Z,20.29
2023-06-09T22:07:27.290Z,20.19
2023-06-09T22:11:29.559Z,20.19
2023-06-09T22:15:31.836Z,20.13
2023-06-09T22:19:36.464Z,19.97
2023-06-09T22:23:38.602Z,19.86
2023-06-09T22:27:40.914Z,19.71
2023-06-09T22:31:43.259Z,19.59
2023-06-09T22:35:45.422Z,19.58
2023-06-09T22:39:49.830Z,19.59
2023-06-09T22:43:52.095Z,19.55
2023-06-09T22:47:55.109Z,19.51
2023-06-09T22:51:58.355Z,19.45
2023-06-09T22:56:00.795Z,19.31
2023-06-09T23:00:05.198Z,19.25
2023-06-09T23:04:11.991Z,19.20
2023-06-09T23:08:14.034Z,19.08
2023-06-09T23:12:16.588Z,18.94
2023-06-09T23:16:21.068Z,18.79
2023-06-09T23:20:23.376Z,18.64
2023-06-09T23:24:28.080Z,18.52
2023-06-09T23:28:30.844Z,18.43
2023-06-09T23:32:33.037Z,18.30
2023-06-09T23:36:35.150Z,18.26
2023-06-09T23:40:37.215Z,18.24
2023-06-09T23:44:41.049Z,18.10
2023-06-09T23:48:43.973Z,18.03
2023-06-09T23:52:46.549Z,17.99
2023-06-09T23:56:48.622Z,18.02
